Time;durP1;ratioP1;P1;durP2;ratioP2;P2;SDS_P1;SDS_P2;PMS_P1;PMS_P2;Temp;Humidity;BMP_temperature;BMP_pressure;BME280_temperature;BME280_humidity;BME280_pressure;Samples;Min_cycle;Max_cycle;Signal;HPM_P1;HPM_P2
2023/02/16 00:02:24;;;;;;;38.95;19.55;;;0.30;99.90;;;;;;5071252;28;20024;-69
2023/02/16 00:04:50;;;;;;;40.30;21.15;;;0.30;99.90;;;;;;5072137;28;20396;-69
2023/02/16 00:07:16;;;;;;;46.15;24.05;;;0.20;99.90;;;;;;5072385;28;20020;-68
2023/02/16 00:09:41;;;;;;;47.25;24.42;;;0.20;99.90;;;;;;5072049;28;20031;-69
2023/02/16 00:15:17;;;;;;;48.80;23.23;;;0.00;99.90;;;;;;5073023;28;20098;-67
2023/02/16 00:17:42;;;;;;;58.05;25.42;;;0.00;99.90;;;;;;5072577;28;20032;-67
2023/02/16 00:20:17;;;;;;;52.85;24.85;;;0.00;99.90;;;;;;5072407;28;20036;-67
2023/02/16 00:22:43;;;;;;;51.58;23.15;;;0.00;99.90;;;;;;5072226;28;20488;-67
2023/02/16 00:25:09;;;;;;;39.50;21.02;;;0.00;99.90;;;;;;5072772;28;20063;-68
2023/02/16 00:27:36;;;;;;;37.88;21.00;;;0.00;99.90;;;;;;5074398;28;20040;-68
2023/02/16 00:30:13;;;;;;;39.10;20.25;;;0.00;99.90;;;;;;5089187;28;20070;-70
2023/02/16 00:32:39;;;;;;;36.95;20.40;;;0.00;99.90;;;;;;5082547;28;20027;-68
2023/02/16 00:35:12;;;;;;;42.47;20.67;;;0.00;99.90;;;;;;5092662;28;20118;-68
2023/02/16 00:37:38;;;;;;;40.65;19.67;;;-0.10;99.90;;;;;;5092370;28;20024;-67
2023/02/16 00:40:04;;;;;;;39.72;20.80;;;-0.10;99.90;;;;;;5092276;28;20484;-68
2023/02/16 00:42:32;;;;;;;35.97;18.75;;;-0.10;99.90;;;;;;5089804;28;20099;-72
2023/02/16 00:44:58;;;;;;;41.30;21.15;;;-0.10;99.90;;;;;;5079480;28;20037;-68
2023/02/16 00:47:33;;;;;;;43.53;21.23;;;-0.10;99.90;;;;;;5086090;28;20020;-69
2023/02/16 00:49:59;;;;;;;37.60;19.08;;;-0.10;99.90;;;;;;5092473;28;20115;-69
2023/02/16 00:52:34;;;;;;;38.92;19.55;;;-0.10;99.90;;;;;;5093343;28;20105;-69
2023/02/16 00:55:03;;;;;;;35.63;19.33;;;-0.10;99.90;;;;;;5092680;28;20472;-70
2023/02/16 00:57:34;;;;;;;32.33;18.35;;;-0.20;99.90;;;;;;5092293;28;20083;-72
2023/02/16 01:00:23;;;;;;;37.65;18.88;;;-0.20;99.90;;;;;;5079977;28;20027;-68
2023/02/16 01:02:50;;;;;;;38.17;20.25;;;-0.30;99.90;;;;;;5090976;28;20046;-68
2023/02/16 01:05:16;;;;;;;40.70;21.08;;;-0.30;99.90;;;;;;5092429;28;20500;-68
2023/02/16 01:13:12;;;;;;;36.85;20.08;;;-0.40;99.90;;;;;;5092478;28;20035;-68
2023/02/16 01:15:38;;;;;;;35.97;19.45;;;-0.50;99.90;;;;;;5090948;28;20114;-68
2023/02/16 01:18:05;;;;;;;37.05;19.20;;;-0.50;99.90;;;;;;5092151;28;20028;-67
2023/02/16 01:20:31;;;;;;;35.15;18.85;;;-0.60;99.90;;;;;;5091201;28;20032;-73
2023/02/16 01:22:57;;;;;;;45.78;21.83;;;-0.60;99.90;;;;;;5094841;28;20023;-68
2023/02/16 01:25:22;;;;;;;37.03;18.90;;;-0.60;99.90;;;;;;5090101;28;20032;-68
2023/02/16 01:27:49;;;;;;;33.95;18.92;;;-0.60;99.90;;;;;;5089040;28;20048;-68
2023/02/16 01:30:24;;;;;;;36.50;19.50;;;-0.60;99.90;;;;;;5091750;28;20107;-68
2023/02/16 01:32:51;;;;;;;39.35;19.10;;;-0.60;99.90;;;;;;5091436;28;20201;-68
2023/02/16 01:35:21;;;;;;;37.15;19.88;;;-0.60;99.90;;;;;;5089226;28;20024;-68
2023/02/16 01:37:49;;;;;;;35.42;18.98;;;-0.50;99.90;;;;;;5070878;28;20036;-69
2023/02/16 01:40:34;;;;;;;34.47;19.35;;;-0.50;99.90;;;;;;5094072;28;20113;-68
2023/02/16 01:43:17;;;;;;;40.22;18.38;;;-0.50;99.90;;;;;;5092356;28;20035;-68
2023/02/16 01:45:48;;;;;;;39.67;18.92;;;-0.50;99.90;;;;;;5090848;28;20481;-68
2023/02/16 01:48:26;;;;;;;39.33;18.58;;;-0.50;99.90;;;;;;5078421;28;20028;-68
2023/02/16 01:51:04;;;;;;;30.23;18.13;;;-0.40;99.90;;;;;;5090977;28;20023;-68
2023/02/16 01:53:35;;;;;;;35.70;17.75;;;-0.40;99.90;;;;;;5081815;28;20039;-73
2023/02/16 01:56:04;;;;;;;35.95;19.08;;;-0.40;99.90;;;;;;5089166;28;20381;-68
2023/02/16 01:58:46;;;;;;;31.35;17.27;;;-0.40;99.90;;;;;;5087599;28;20039;-71
2023/02/16 02:01:17;;;;;;;36.67;17.40;;;-0.50;99.90;;;;;;5086693;28;20035;-68
2023/02/16 02:06:33;;;;;;;32.35;17.67;;;-0.50;99.90;;;;;;5091285;28;20460;-71
2023/02/16 02:09:05;;;;;;;35.72;18.40;;;-0.50;99.90;;;;;;5090716;28;20028;-68
2023/02/16 02:11:48;;;;;;;35.55;18.48;;;-0.50;99.90;;;;;;5090268;28;20025;-72
2023/02/16 02:14:21;;;;;;;37.08;19.00;;;-0.50;99.90;;;;;;5073279;28;20032;-68
2023/02/16 02:17:02;;;;;;;33.13;17.30;;;-0.50;99.90;;;;;;5090588;28;20468;-69
2023/02/16 02:19:30;;;;;;;40.00;19.40;;;-0.60;99.90;;;;;;5090774;28;20024;-73
2023/02/16 02:25:23;;;;;;;36.30;18.35;;;-0.60;99.90;;;;;;5090538;28;20109;-68
2023/02/16 02:28:00;;;;;;;30.33;15.98;;;-0.70;99.90;;;;;;5079820;28;20040;-68
2023/02/16 02:30:46;;;;;;;40.33;17.88;;;-0.70;99.90;;;;;;5090679;28;20103;-70
2023/02/16 02:33:36;;;;;;;35.30;18.38;;;-0.80;99.90;;;;;;5087327;28;20117;-68
2023/02/16 02:36:18;;;;;;;36.55;17.95;;;-0.70;99.90;;;;;;5095649;28;20028;-68
2023/02/16 02:39:10;;;;;;;38.88;19.60;;;-0.70;99.90;;;;;;5094440;28;20040;-68
2023/02/16 02:42:04;;;;;;;33.08;16.90;;;-0.70;99.90;;;;;;5082803;28;20469;-69
2023/02/16 02:44:43;;;;;;;33.95;17.20;;;-0.70;99.90;;;;;;5093982;28;20090;-73
2023/02/16 02:47:09;;;;;;;31.55;16.70;;;-0.80;99.90;;;;;;5095075;28;20436;-69
2023/02/16 02:49:34;;;;;;;34.65;17.23;;;-0.80;99.90;;;;;;5093652;28;20052;-68
2023/02/16 02:52:00;;;;;;;34.55;16.52;;;-0.90;99.90;;;;;;5095301;28;20024;-69
2023/02/16 03:00:50;;;;;;;32.25;16.92;;;-1.00;99.90;;;;;;5093813;28;20038;-69
2023/02/16 03:03:26;;;;;;;31.80;17.45;;;-1.10;99.90;;;;;;5085197;28;20043;-69
2023/02/16 03:06:06;;;;;;;36.25;17.30;;;-1.10;99.90;;;;;;5092901;28;20066;-68
2023/02/16 03:08:33;;;;;;;;;;;-1.10;99.90;;;;;;5090666;28;20499;-72
2023/02/16 03:13:56;;;;;;;35.60;16.63;;;-1.10;99.90;;;;;;5090552;28;20054;-68
2023/02/16 03:30:51;;;;;;;34.90;16.42;;;-1.10;99.90;;;;;;5071543;28;20287;-69
2023/02/16 03:33:17;;;;;;;33.35;17.75;;;-1.10;99.90;;;;;;5071398;28;20036;-69
2023/02/16 03:35:44;;;;;;;32.33;16.77;;;-1.10;99.90;;;;;;5070989;28;20023;-69
2023/02/16 03:38:10;;;;;;;34.65;16.85;;;-1.20;99.90;;;;;;5072254;28;20016;-68
2023/02/16 03:40:39;;;;;;;39.10;18.55;;;-1.10;99.90;;;;;;5070632;28;20025;-69
2023/02/16 03:43:06;;;;;;;41.63;19.13;;;-1.10;99.90;;;;;;5072304;28;20039;-69
2023/02/16 03:45:35;;;;;;;35.42;16.70;;;-1.00;99.90;;;;;;5071412;28;20349;-72
2023/02/16 03:48:01;;;;;;;40.47;17.85;;;-1.00;99.90;;;;;;5070596;28;20069;-68
2023/02/16 03:50:27;;;;;;;36.67;17.77;;;-0.90;99.90;;;;;;5073241;28;20112;-69
2023/02/16 03:53:05;;;;;;;36.33;17.27;;;-0.80;99.90;;;;;;5069891;28;20549;-68
2023/02/16 03:55:34;;;;;;;28.45;16.13;;;-0.80;99.90;;;;;;5069245;28;20085;-72
2023/02/16 03:58:00;;;;;;;31.13;15.88;;;-0.80;99.90;;;;;;5072035;28;20016;-67
2023/02/16 04:00:26;;;;;;;29.75;16.30;;;-0.80;99.90;;;;;;5071638;28;20484;-68
2023/02/16 04:02:51;;;;;;;31.83;16.33;;;-0.80;99.90;;;;;;5070657;28;20036;-68
2023/02/16 04:05:17;;;;;;;33.72;17.30;;;-0.80;99.90;;;;;;5072103;28;20509;-70
2023/02/16 04:07:43;;;;;;;33.35;17.27;;;-0.80;99.90;;;;;;5070952;28;20020;-67
2023/02/16 04:10:08;;;;;;;29.58;15.15;;;-0.80;99.90;;;;;;5071419;28;20397;-68
2023/02/16 04:12:37;;;;;;;29.58;15.18;;;-0.80;99.90;;;;;;5070173;28;20028;-67
2023/02/16 04:15:08;;;;;;;26.67;15.52;;;-0.80;99.90;;;;;;5069140;28;20029;-68
2023/02/16 04:17:34;;;;;;;28.05;15.38;;;-0.80;99.90;;;;;;5070209;28;20465;-67
2023/02/16 04:19:59;;;;;;;27.25;14.90;;;-0.80;99.90;;;;;;5069773;28;20035;-68
2023/02/16 04:22:25;;;;;;;30.30;15.20;;;-0.90;99.90;;;;;;5068903;28;20531;-68
2023/02/16 04:24:51;;;;;;;27.05;14.48;;;-0.90;99.90;;;;;;5069813;28;20093;-67
2023/02/16 04:27:16;;;;;;;29.45;14.77;;;-0.90;99.90;;;;;;5071387;28;20052;-69
2023/02/16 04:29:42;;;;;;;25.77;13.18;;;-0.90;99.90;;;;;;5052653;28;20098;-68
2023/02/16 04:32:08;;;;;;;27.50;14.88;;;-1.00;99.90;;;;;;5068688;28;20384;-69
2023/02/16 04:34:33;;;;;;;22.58;13.10;;;-1.00;99.90;;;;;;5068910;28;20028;-71
2023/02/16 04:36:59;;;;;;;24.13;13.38;;;-1.10;99.90;;;;;;5070931;28;20036;-69
2023/02/16 04:39:25;;;;;;;24.27;13.40;;;-1.10;99.90;;;;;;5072426;28;20028;-68
2023/02/16 04:41:51;;;;;;;25.02;13.85;;;-1.10;99.90;;;;;;5070536;28;20104;-68
2023/02/16 04:44:16;;;;;;;25.80;13.98;;;-1.20;99.90;;;;;;5070932;28;20032;-68
2023/02/16 04:46:42;;;;;;;25.55;13.63;;;-1.20;99.90;;;;;;5070031;28;20025;-69
2023/02/16 04:49:07;;;;;;;24.77;14.15;;;-1.30;99.90;;;;;;5069712;28;20027;-70
2023/02/16 04:51:33;;;;;;;25.65;14.35;;;-1.30;99.90;;;;;;5069622;28;20531;-72
2023/02/16 04:53:58;;;;;;;25.85;13.30;;;-1.40;99.90;;;;;;5069653;28;20031;-69
2023/02/16 04:56:24;;;;;;;28.15;14.43;;;-1.40;99.90;;;;;;5071460;28;20457;-68
2023/02/16 04:58:50;;;;;;;27.80;14.20;;;-1.40;99.90;;;;;;5069528;28;20174;-68
2023/02/16 05:01:20;;;;;;;27.83;14.05;;;-1.50;99.90;;;;;;5071577;28;20082;-68
2023/02/16 05:03:46;;;;;;;28.90;15.60;;;-1.50;99.90;;;;;;5070315;28;20037;-68
2023/02/16 05:06:12;;;;;;;29.65;15.98;;;-1.50;99.90;;;;;;5072128;28;20067;-68
2023/02/16 05:08:38;;;;;;;34.90;16.23;;;-1.50;99.90;;;;;;5070792;28;20064;-68
2023/02/16 05:16:32;;;;;;;27.75;15.38;;;-1.50;99.90;;;;;;5071172;28;20071;-73
2023/02/16 05:18:58;;;;;;;29.58;14.93;;;-1.40;99.90;;;;;;5065536;28;20029;-68
2023/02/16 05:21:29;;;;;;;28.33;14.20;;;-1.40;99.90;;;;;;5070292;28;20078;-68
2023/02/16 05:23:55;;;;;;;30.42;15.45;;;-1.40;99.90;;;;;;5079597;28;21240;-68
2023/02/16 05:26:21;;;;;;;29.70;16.00;;;-1.40;99.90;;;;;;5071956;28;20021;-68
2023/02/16 05:28:47;;;;;;;25.77;14.60;;;-1.40;99.90;;;;;;5069546;28;20060;-68
2023/02/16 05:31:12;;;;;;;30.40;16.00;;;-1.40;99.90;;;;;;5071299;28;20027;-67
2023/02/16 05:33:38;;;;;;;30.45;15.45;;;-1.40;99.90;;;;;;5069859;28;20033;-68
2023/02/16 05:36:03;;;;;;;29.23;15.23;;;-1.50;99.90;;;;;;5071838;28;20039;-67
2023/02/16 05:38:29;;;;;;;29.20;15.38;;;-1.50;99.90;;;;;;5070603;28;20025;-72
2023/02/16 05:40:55;;;;;;;30.38;15.68;;;-1.50;99.90;;;;;;5071130;28;20031;-67
2023/02/16 05:43:20;;;;;;;30.27;15.80;;;-1.50;99.90;;;;;;5071546;28;20162;-66
2023/02/16 05:45:46;;;;;;;25.17;14.68;;;-1.50;99.90;;;;;;5070591;28;20032;-67
2023/02/16 05:48:11;;;;;;;28.42;15.07;;;-1.50;99.90;;;;;;5058065;28;20060;-68
2023/02/16 05:50:37;;;;;;;33.22;15.13;;;-1.50;99.90;;;;;;5070612;28;20028;-68
2023/02/16 05:53:02;;;;;;;34.17;16.08;;;-1.50;99.90;;;;;;5071443;28;20492;-68
2023/02/16 05:55:28;;;;;;;35.42;16.38;;;-1.60;99.90;;;;;;5070959;28;20077;-72
2023/02/16 05:57:53;;;;;;;33.88;15.88;;;-1.50;99.90;;;;;;5070784;28;20366;-68
2023/02/16 06:00:19;;;;;;;31.15;16.55;;;-1.60;99.90;;;;;;5071086;28;20056;-67
2023/02/16 06:02:45;;;;;;;33.65;16.35;;;-1.50;99.90;;;;;;5052799;28;20477;-68
2023/02/16 06:05:10;;;;;;;29.40;15.65;;;-1.50;99.90;;;;;;5071115;28;20021;-68
2023/02/16 06:07:36;;;;;;;33.92;17.50;;;-1.40;99.90;;;;;;5070477;28;20039;-69
2023/02/16 06:10:03;;;;;;;40.08;18.60;;;-1.40;99.90;;;;;;5052847;28;20071;-68
2023/02/16 06:12:30;;;;;;;37.80;18.77;;;-1.40;99.90;;;;;;5071255;28;20037;-74
2023/02/16 06:14:56;;;;;;;29.35;16.38;;;-1.40;99.90;;;;;;5070577;28;20033;-70
2023/02/16 06:17:22;;;;;;;35.50;17.38;;;-1.30;99.90;;;;;;5070763;28;20024;-69
2023/02/16 06:19:47;;;;;;;31.83;16.67;;;-1.30;99.90;;;;;;5070144;28;20036;-69
2023/02/16 06:22:13;;;;;;;32.45;16.15;;;-1.20;99.90;;;;;;5076316;28;20042;-70
2023/02/16 06:24:39;;;;;;;33.70;16.52;;;-1.10;99.90;;;;;;5076930;28;20416;-69
2023/02/16 06:27:04;;;;;;;33.33;16.40;;;-1.20;99.90;;;;;;5071215;28;20016;-68
2023/02/16 06:29:30;;;;;;;28.65;14.85;;;-1.20;99.90;;;;;;5070305;28;20043;-73
2023/02/16 06:31:56;;;;;;;31.15;15.10;;;-1.20;99.90;;;;;;5071063;28;20032;-71
2023/02/16 06:34:22;;;;;;;30.15;16.15;;;-1.20;99.90;;;;;;5070550;28;20033;-69
2023/02/16 06:36:47;;;;;;;29.70;16.05;;;-1.20;99.90;;;;;;5070280;28;20024;-68
2023/02/16 06:39:13;;;;;;;31.75;15.50;;;-1.30;99.90;;;;;;5052377;28;20020;-69
2023/02/16 06:41:39;;;;;;;29.08;16.30;;;-1.30;99.90;;;;;;5070320;28;20397;-68
2023/02/16 06:44:15;;;;;;;30.48;18.02;;;-1.30;99.90;;;;;;5070646;28;20032;-68
2023/02/16 06:46:43;;;;;;;30.13;18.45;;;-1.30;99.90;;;;;;5070445;28;20456;-66
2023/02/16 06:49:14;;;;;;;35.35;17.85;;;-1.30;99.90;;;;;;5070243;28;20040;-70
2023/02/16 06:51:40;;;;;;;33.78;17.52;;;-1.40;99.90;;;;;;5052387;28;20384;-69
2023/02/16 06:54:06;;;;;;;36.45;17.85;;;-1.40;99.90;;;;;;5070250;28;20067;-69
2023/02/16 06:56:31;;;;;;;37.15;16.95;;;-1.30;99.90;;;;;;5070401;28;20044;-74
2023/02/16 06:58:57;;;;;;;32.90;17.35;;;-1.30;99.90;;;;;;5070227;28;20095;-68
2023/02/16 07:01:24;;;;;;;35.28;16.80;;;-1.10;99.90;;;;;;5071057;28;20025;-69
2023/02/16 07:03:51;;;;;;;28.92;15.45;;;-1.00;99.90;;;;;;5069489;28;20040;-71
2023/02/16 07:06:18;;;;;;;33.15;16.38;;;-1.00;99.90;;;;;;5071042;28;20021;-70
2023/02/16 07:08:44;;;;;;;33.03;16.63;;;-1.00;99.90;;;;;;5069261;28;20025;-71
2023/02/16 07:11:10;;;;;;;31.80;16.95;;;-0.90;99.90;;;;;;5070560;28;20100;-70
2023/02/16 07:13:35;;;;;;;26.90;14.60;;;-0.90;99.90;;;;;;5069382;28;20028;-70
2023/02/16 07:16:06;;;;;;;29.65;15.77;;;-0.90;99.90;;;;;;5071575;28;20077;-71
2023/02/16 07:18:32;;;;;;;33.92;16.80;;;-1.00;99.90;;;;;;5073356;28;20025;-73
2023/02/16 07:20:58;;;;;;;28.40;15.10;;;-1.00;99.90;;;;;;5073649;28;20024;-70
2023/02/16 07:23:24;;;;;;;35.10;16.45;;;-1.10;99.90;;;;;;5074046;28;20032;-69
2023/02/16 07:25:50;;;;;;;34.35;17.73;;;-1.10;99.90;;;;;;5072812;28;20032;-70
2023/02/16 07:28:15;;;;;;;37.15;18.30;;;-1.00;99.90;;;;;;5085529;28;20405;-68
2023/02/16 07:30:41;;;;;;;34.65;16.80;;;-0.90;99.90;;;;;;5092930;28;20048;-69
2023/02/16 07:33:07;;;;;;;30.35;15.73;;;-0.80;99.90;;;;;;5094823;28;20068;-69
2023/02/16 07:35:34;;;;;;;34.65;16.10;;;-0.80;99.90;;;;;;5093210;28;20036;-69
2023/02/16 07:37:59;;;;;;;30.58;16.05;;;-0.80;99.90;;;;;;5094033;28;20477;-68
2023/02/16 07:40:25;;;;;;;31.25;16.52;;;-0.70;99.90;;;;;;5093434;28;20027;-66
2023/02/16 07:42:51;;;;;;;31.88;16.33;;;-0.70;99.90;;;;;;5093474;28;20584;-68
2023/02/16 07:45:16;;;;;;;34.53;18.20;;;-0.70;99.90;;;;;;5093514;28;20120;-68
2023/02/16 07:47:42;;;;;;;33.15;17.42;;;-0.60;99.90;;;;;;5093362;28;20036;-67
2023/02/16 07:50:08;;;;;;;31.73;16.25;;;-0.40;99.90;;;;;;5093273;28;20111;-67
2023/02/16 07:52:34;;;;;;;38.53;17.92;;;-0.30;99.90;;;;;;5093047;28;20047;-74
2023/02/16 07:54:59;;;;;;;36.97;16.45;;;-0.20;99.90;;;;;;5076130;28;20464;-68
2023/02/16 07:57:26;;;;;;;40.78;16.33;;;-0.10;99.90;;;;;;5094006;28;20027;-67
2023/02/16 07:59:53;;;;;;;36.92;15.20;;;0.00;99.90;;;;;;5092479;28;20052;-68
2023/02/16 08:02:20;;;;;;;32.28;16.48;;;0.10;99.90;;;;;;5093749;28;20036;-68
2023/02/16 08:04:47;;;;;;;30.55;16.25;;;0.20;99.90;;;;;;5092465;28;20028;-68
2023/02/16 08:07:14;;;;;;;31.77;17.17;;;0.30;99.90;;;;;;5093739;28;20457;-68
2023/02/16 08:09:40;;;;;;;29.75;16.58;;;0.50;99.90;;;;;;5099622;28;20043;-68
2023/02/16 08:12:13;;;;;;;28.00;16.80;;;0.60;99.90;;;;;;5097948;28;20066;-67
2023/02/16 08:14:39;;;;;;;34.13;17.50;;;0.70;99.90;;;;;;5097786;28;20034;-69
2023/02/16 08:17:06;;;;;;;31.08;17.70;;;0.80;99.90;;;;;;5093579;28;20012;-68
2023/02/16 08:19:32;;;;;;;34.15;17.75;;;1.00;99.90;;;;;;5092169;28;20032;-73
2023/02/16 08:22:01;;;;;;;30.98;17.77;;;1.10;99.90;;;;;;5093331;28;20106;-68
2023/02/16 08:24:27;;;;;;;30.30;16.75;;;1.20;99.90;;;;;;5092826;28;20110;-68
2023/02/16 08:26:54;;;;;;;27.98;16.83;;;1.40;99.90;;;;;;5091452;28;20666;-67
2023/02/16 08:29:21;;;;;;;28.15;16.95;;;1.50;99.90;;;;;;5071662;28;20021;-68
2023/02/16 08:31:47;;;;;;;24.38;15.45;;;1.60;99.90;;;;;;5072221;28;20041;-68
2023/02/16 08:34:14;;;;;;;28.60;16.25;;;1.70;99.90;;;;;;5072466;28;20028;-67
2023/02/16 08:36:43;;;;;;;28.80;16.40;;;1.80;99.90;;;;;;5072031;28;20029;-68
2023/02/16 08:39:19;;;;;;;24.65;15.00;;;2.00;99.90;;;;;;5071863;28;20397;-67
2023/02/16 08:41:46;;;;;;;23.58;14.75;;;2.10;99.90;;;;;;5071570;28;20035;-67
2023/02/16 08:44:14;;;;;;;25.60;15.32;;;2.20;99.90;;;;;;5073077;28;20036;-67
2023/02/16 08:46:41;;;;;;;34.22;17.60;;;2.30;99.90;;;;;;5071643;28;20029;-67
2023/02/16 08:49:09;;;;;;;27.38;15.43;;;2.50;99.90;;;;;;5072386;28;20097;-67
2023/02/16 08:51:37;;;;;;;34.15;17.27;;;2.70;99.90;;;;;;5071688;28;20024;-68
2023/02/16 08:54:05;;;;;;;27.75;16.63;;;2.80;99.90;;;;;;5071356;28;20389;-67
2023/02/16 08:56:31;;;;;;;27.45;15.40;;;3.10;99.90;;;;;;5071718;28;20028;-72
2023/02/16 08:58:58;;;;;;;24.92;15.48;;;3.20;99.90;;;;;;5072660;28;20024;-67
2023/02/16 09:01:24;;;;;;;26.08;15.30;;;3.40;99.90;;;;;;5079612;28;20485;-68
2023/02/16 09:03:51;;;;;;;24.48;15.63;;;3.60;99.90;;;;;;5075345;28;20411;-67
2023/02/16 09:06:21;;;;;;;28.17;15.95;;;3.70;99.90;;;;;;5072278;28;20056;-67
2023/02/16 09:08:52;;;;;;;29.65;16.60;;;3.90;99.90;;;;;;5068112;28;20020;-72
2023/02/16 09:11:18;;;;;;;30.38;16.58;;;4.10;99.90;;;;;;5059104;28;20482;-67
2023/02/16 09:13:45;;;;;;;27.95;16.33;;;4.20;99.90;;;;;;5069405;28;20044;-67
2023/02/16 09:16:16;;;;;;;29.15;16.08;;;4.30;99.90;;;;;;5070838;28;20540;-67
2023/02/16 09:18:43;;;;;;;31.20;16.33;;;4.40;99.90;;;;;;5070796;28;20032;-68
2023/02/16 09:21:18;;;;;;;21.92;14.52;;;4.60;99.90;;;;;;5065774;28;20736;-67
2023/02/16 09:23:46;;;;;;;29.85;16.58;;;4.70;99.90;;;;;;5073051;28;20127;-67
2023/02/16 09:26:22;;;;;;;26.30;16.17;;;4.90;99.90;;;;;;5069686;28;20035;-67
2023/02/16 09:28:49;;;;;;;26.58;16.35;;;5.00;99.90;;;;;;5087289;28;20083;-70
2023/02/16 09:31:19;;;;;;;28.27;16.63;;;5.20;99.90;;;;;;5094864;28;20069;-69
2023/02/16 09:33:45;;;;;;;26.73;15.30;;;5.30;99.90;;;;;;5095631;28;20032;-67
2023/02/16 09:36:11;;;;;;;34.38;15.23;;;5.50;99.90;;;;;;5095475;28;20039;-69
2023/02/16 09:38:38;;;;;;;25.92;15.32;;;5.60;99.90;;;;;;5096846;28;20077;-68
2023/02/16 09:41:44;;;;;;;24.00;15.05;;;5.80;99.90;;;;;;5091065;28;20112;-69
2023/02/16 09:44:33;;;;;;;25.85;15.70;;;6.00;99.90;;;;;;5087481;28;20031;-68
2023/02/16 09:47:03;;;;;;;19.88;11.85;;;6.20;99.90;;;;;;5100079;28;20028;-67
2023/02/16 09:49:31;;;;;;;23.40;13.05;;;6.50;99.90;;;;;;5093866;28;20145;-73
2023/02/16 09:52:15;;;;;;;25.17;14.75;;;6.70;99.90;;;;;;5096741;28;20469;-68
2023/02/16 09:54:56;;;;;;;26.90;14.60;;;7.00;99.90;;;;;;5086581;28;20067;-67
2023/02/16 09:58:03;;;;;;;21.30;13.80;;;7.30;99.90;;;;;;5094941;28;20051;-68
2023/02/16 10:00:32;;;;;;;26.52;13.40;;;7.60;99.90;;;;;;5091031;28;20038;-73
2023/02/16 10:03:31;;;;;;;20.75;11.52;;;7.80;99.90;;;;;;5098446;28;20032;-68
2023/02/16 10:06:12;;;;;;;20.13;10.48;;;8.00;99.90;;;;;;5091158;28;20028;-69
2023/02/16 10:08:50;;;;;;;17.02;9.55;;;8.30;99.90;;;;;;5095790;28;20120;-68
2023/02/16 10:11:44;;;;;;;18.67;9.05;;;8.50;99.90;;;;;;5095434;28;20052;-68
2023/02/16 10:14:36;;;;;;;22.17;13.25;;;8.80;99.90;;;;;;5089442;28;20114;-68
2023/02/16 10:17:30;;;;;;;22.92;14.48;;;9.00;99.90;;;;;;5092083;28;20073;-68
2023/02/16 10:20:08;;;;;;;15.65;9.13;;;9.30;99.90;;;;;;5089568;28;20082;-69
2023/02/16 10:22:44;;;;;;;21.50;9.48;;;9.40;99.90;;;;;;5090909;28;20036;-68
2023/02/16 10:25:17;;;;;;;16.30;9.80;;;9.60;99.90;;;;;;5095822;28;20043;-69
2023/02/16 10:27:46;;;;;;;18.58;11.10;;;9.80;99.90;;;;;;5103223;28;20476;-68
2023/02/16 10:30:20;;;;;;;15.18;8.15;;;10.00;99.90;;;;;;5081768;28;20454;-68
2023/02/16 10:33:02;;;;;;;16.15;7.85;;;10.20;99.90;;;;;;5098633;28;20028;-70
2023/02/16 10:35:43;;;;;;;10.98;6.70;;;10.30;99.90;;;;;;5086513;28;20032;-74
2023/02/16 10:38:08;;;;;;;;;;;10.40;99.90;;;;;;5097365;28;20218;-68
2023/02/16 10:40:49;;;;;;;14.23;6.95;;;10.70;99.50;;;;;;5087521;28;19911;-69
2023/02/16 10:43:36;;;;;;;16.35;7.00;;;10.80;99.20;;;;;;5095036;28;20093;-70
2023/02/16 10:46:04;;;;;;;15.05;6.97;;;;;;;;;;5089188;28;20047;-70
2023/02/16 10:48:31;;;;;;;16.13;6.82;;;;;;;;;;5094373;28;20027;-75
2023/02/16 10:51:16;;;;;;;10.27;6.47;;;11.30;96.70;;;;;;5091974;28;21229;-69
2023/02/16 10:53:55;;;;;;;14.57;6.50;;;11.40;97.00;;;;;;5091559;28;20027;-70
2023/02/16 10:56:45;;;;;;;11.95;6.90;;;11.50;96.00;;;;;;5110955;28;20028;-68
2023/02/16 10:59:38;;;;;;;11.25;6.40;;;11.60;96.10;;;;;;5096801;28;20032;-68
2023/02/16 11:02:36;;;;;;;13.55;6.28;;;11.70;95.50;;;;;;5101104;28;20032;-67
2023/02/16 11:05:25;;;;;;;15.75;6.32;;;11.90;95.00;;;;;;5104104;28;20483;-70
2023/02/16 11:07:53;;;;;;;13.93;6.03;;;12.00;94.70;;;;;;5082272;28;20054;-70
2023/02/16 11:10:56;;;;;;;10.35;6.28;;;12.10;94.40;;;;;;5088715;28;20028;-69
2023/02/16 11:13:34;;;;;;;10.15;6.13;;;12.20;93.90;;;;;;5112668;28;20036;-69
2023/02/16 11:16:05;;;;;;;10.63;5.78;;;12.40;93.20;;;;;;5090033;28;20377;-69
2023/02/16 11:18:44;;;;;;;10.70;6.20;;;12.40;93.00;;;;;;5096557;28;20024;-73
2023/02/16 11:21:11;;;;;;;13.20;6.93;;;12.60;92.90;;;;;;5093288;28;20020;-68
2023/02/16 11:23:42;;;;;;;20.25;9.68;;;12.70;92.50;;;;;;5102412;28;20032;-69
2023/02/16 11:26:10;;;;;;;17.77;10.63;;;12.80;92.90;;;;;;5075566;28;20032;-68
2023/02/16 11:28:45;;;;;;;19.90;11.55;;;12.90;93.90;;;;;;5076959;28;20101;-70
2023/02/16 11:31:35;;;;;;;23.58;11.07;;;12.90;93.50;;;;;;5090814;28;20032;-70
2023/02/16 11:34:34;;;;;;;16.30;10.50;;;13.00;93.60;;;;;;5099602;28;20040;-66
2023/02/16 11:37:24;;;;;;;21.15;10.55;;;13.00;93.80;;;;;;5105119;28;20379;-68
2023/02/16 11:39:51;;;;;;;;;;;13.00;93.80;;;;;;5082198;28;20598;-68
2023/02/16 11:42:30;;;;;;;17.00;10.73;;;13.10;93.40;;;;;;5082332;28;19907;-67
2023/02/16 11:44:57;;;;;;;17.92;9.70;;;;;;;;;;5092374;28;20555;-67
2023/02/16 11:47:28;;;;;;;18.27;9.40;;;13.20;93.10;;;;;;5097428;28;20024;-69
2023/02/16 11:50:22;;;;;;;22.08;10.70;;;13.20;92.90;;;;;;5079035;28;20024;-67
2023/02/16 11:52:51;;;;;;;15.63;10.23;;;13.20;93.10;;;;;;5095433;28;20381;-69
2023/02/16 11:55:32;;;;;;;18.40;10.27;;;13.20;93.10;;;;;;5091330;28;20032;-67
2023/02/16 11:58:20;;;;;;;18.75;10.57;;;13.20;93.10;;;;;;5097491;28;20394;-67
2023/02/16 12:01:21;;;;;;;25.13;10.55;;;13.20;92.30;;;;;;5092889;28;20053;-68
2023/02/16 12:04:19;;;;;;;18.25;10.13;;;13.20;92.50;;;;;;5090859;28;20036;-71
2023/02/16 12:07:19;;;;;;;18.25;9.65;;;13.30;91.70;;;;;;5071378;28;20118;-69
2023/02/16 12:09:59;;;;;;;14.90;9.13;;;13.30;92.20;;;;;;5088801;28;20024;-68
2023/02/16 12:12:40;;;;;;;14.68;8.73;;;13.30;92.00;;;;;;5092494;28;20278;-68
2023/02/16 12:15:22;;;;;;;15.13;9.23;;;13.40;91.40;;;;;;5088241;28;20028;-74
2023/02/16 12:18:05;;;;;;;14.35;9.90;;;13.50;91.60;;;;;;5100706;28;20028;-73
2023/02/16 12:20:44;;;;;;;20.73;10.20;;;13.70;91.20;;;;;;5094428;28;20020;-81
2023/02/16 12:23:37;;;;;;;19.30;9.13;;;13.90;91.10;;;;;;5108263;28;20028;-74
2023/02/16 12:26:15;;;;;;;17.80;9.25;;;13.90;90.90;;;;;;5070664;28;20273;-76
2023/02/16 12:28:44;;;;;;;16.73;8.40;;;14.00;90.60;;;;;;5096960;28;20035;-76
2023/02/16 12:31:16;;;;;;;18.67;9.07;;;14.10;90.00;;;;;;5091775;28;20024;-74
2023/02/16 12:34:03;;;;;;;14.77;8.77;;;14.30;89.00;;;;;;5086286;28;20028;-72
2023/02/16 12:36:38;;;;;;;14.43;9.05;;;14.50;87.00;;;;;;5091405;28;20020;-79
2023/02/16 12:39:21;;;;;;;13.45;8.65;;;14.50;87.00;;;;;;5090721;28;20465;-73
2023/02/16 12:42:00;;;;;;;14.82;7.80;;;14.70;85.70;;;;;;5093773;28;20027;-74
2023/02/16 12:44:41;;;;;;;13.30;8.50;;;15.00;84.70;;;;;;5080728;28;20381;-73
2023/02/16 12:47:16;;;;;;;14.48;8.20;;;15.10;83.80;;;;;;5104781;28;20039;-73
2023/02/16 12:49:57;;;;;;;13.73;8.00;;;15.40;82.80;;;;;;5090577;28;20411;-74
2023/02/16 12:52:54;;;;;;;18.13;8.70;;;15.60;81.20;;;;;;5097556;28;20335;-74
2023/02/16 12:55:35;;;;;;;16.02;8.57;;;16.00;79.00;;;;;;5091624;28;20036;-73
2023/02/16 12:58:10;;;;;;;13.40;7.55;;;16.00;78.30;;;;;;5102357;28;20035;-73
2023/02/16 13:00:51;;;;;;;12.40;7.07;;;16.00;78.90;;;;;;5096301;28;20024;-73
2023/02/16 13:03:39;;;;;;;17.60;8.18;;;16.10;79.20;;;;;;5092658;28;20036;-73
2023/02/16 13:06:21;;;;;;;13.23;7.63;;;16.60;76.70;;;;;;5086829;28;20028;-74
2023/02/16 13:09:02;;;;;;;14.02;8.38;;;16.80;76.20;;;;;;5089835;28;20028;-73
2023/02/16 13:11:37;;;;;;;14.30;8.85;;;17.40;95.50;;;;;;5074875;28;20037;-74
2023/02/16 13:14:11;;;;;;;15.73;8.93;;;17.30;74.00;;;;;;5098948;28;20065;-73
2023/02/16 13:16:43;;;;;;;13.88;7.75;;;17.70;72.10;;;;;;5094309;28;20016;-74
2023/02/16 13:19:14;;;;;;;13.57;8.43;;;17.90;71.30;;;;;;5095090;28;20071;-73
2023/02/16 13:22:07;;;;;;;14.35;7.88;;;18.00;70.50;;;;;;5087800;28;20020;-71
2023/02/16 13:25:07;;;;;;;16.10;9.27;;;18.10;70.20;;;;;;5098670;28;20424;-76
2023/02/16 13:28:02;;;;;;;14.80;8.00;;;18.00;69.40;;;;;;5016139;28;20065;-75
2023/02/16 13:30:58;;;;;;;11.82;7.78;;;17.60;69.40;;;;;;5093825;28;20032;-73
2023/02/16 13:33:43;;;;;;;14.25;7.95;;;17.30;70.10;;;;;;5091411;28;20032;-73
2023/02/16 13:36:21;;;;;;;16.42;8.35;;;16.80;71.30;;;;;;5091388;28;20147;-76
2023/02/16 13:39:14;;;;;;;13.98;7.97;;;16.60;71.70;;;;;;5097941;28;20106;-76
2023/02/16 13:42:07;;;;;;;17.83;8.05;;;16.40;72.10;;;;;;5085143;28;20538;-76
2023/02/16 13:44:35;;;;;;;13.50;8.35;;;16.40;72.90;;;;;;5095368;28;20031;-77